Time;durP1;ratioP1;P1;durP2;ratioP2;P2;SDS_P1;SDS_P2;PMS_P1;PMS_P2;Temp;Humidity;BMP_temperature;BMP_pressure;BME280_temperature;BME280_humidity;BME280_pressure;Samples;Min_cycle;Max_cycle;Signal;HPM_P1;HPM_P2
2022/09/08 00:01:15;;;;;;;10.95;1.38;;;;;;;16.59;71.43;99154.16;5018540;28;20459;-55
2022/09/08 00:03:42;;;;;;;4.32;1.15;;;;;;;16.58;71.37;99144.59;5016259;28;20149;-55
2022/09/08 00:06:13;;;;;;;3.47;1.20;;;;;;;16.56;71.68;99146.44;5016297;28;20154;-55
2022/09/08 00:08:40;;;;;;;9.57;1.38;;;;;;;16.56;72.08;99146.44;4996883;28;20610;-54
2022/09/08 00:11:10;;;;;;;7.53;1.08;;;;;;;16.53;71.87;99141.34;5031138;28;20144;-53
2022/09/08 00:13:39;;;;;;;11.10;1.65;;;;;;;16.52;72.54;99139.63;5033024;28;20170;-51
2022/09/08 00:16:07;;;;;;;9.85;1.20;;;;;;;16.49;71.93;99137.16;5037244;28;20131;-55
2022/09/08 00:18:37;;;;;;;6.72;0.80;;;;;;;16.45;72.87;99129.44;5031602;28;24585;-56
2022/09/08 00:21:05;;;;;;;;;;;;;;;16.28;74.01;99131.91;5034266;28;20568;-53
2022/09/08 00:23:34;;;;;;;6.25;1.52;;;;;;;16.41;72.31;99121.78;5034539;28;20385;-54
2022/09/08 00:26:02;;;;;;;5.10;0.93;;;;;;;16.44;71.76;99121.66;5020913;28;20385;-51
2022/09/08 00:28:30;;;;;;;8.07;1.05;;;;;;;16.45;71.66;99118.97;5023207;28;20053;-54
2022/09/08 00:30:59;;;;;;;3.53;0.75;;;;;;;16.47;72.50;99115.44;5014337;28;20076;-52
2022/09/08 00:33:29;;;;;;;3.60;0.65;;;;;;;16.46;72.17;99109.38;5020363;28;20053;-53
2022/09/08 00:35:57;;;;;;;6.13;1.05;;;;;;;16.46;72.01;99109.38;5013417;28;23713;-51
2022/09/08 00:38:26;;;;;;;3.03;1.52;;;;;;;16.48;71.70;99101.47;5021582;28;20412;-54
2022/09/08 00:40:52;;;;;;;3.55;0.75;;;;;;;16.47;71.29;99111.06;5014174;28;20054;-54
2022/09/08 00:43:41;;;;;;;3.28;0.90;;;;;;;16.43;72.10;99104.28;5019310;28;20080;-55
2022/09/08 00:49:03;;;;;;;3.95;1.23;;;;;;;16.47;71.99;99097.16;5048548;28;20386;-55
2022/09/08 00:51:31;;;;;;;2.35;0.95;;;;;;;16.47;71.37;99099.75;5026753;28;20069;-52
2022/09/08 00:53:58;;;;;;;5.47;1.13;;;;;;;16.44;71.87;99099.00;5038491;28;20107;-53
2022/09/08 00:56:27;;;;;;;3.92;0.88;;;;;;;16.45;72.18;99098.06;5028956;28;20081;-57
2022/09/08 00:58:55;;;;;;;9.10;1.25;;;;;;;16.47;72.01;99100.63;5023543;28;20045;-56
2022/09/08 01:01:21;;;;;;;3.30;0.98;;;;;;;16.48;71.64;99093.63;5023093;28;20485;-51
2022/09/08 01:03:48;;;;;;;5.63;0.55;;;;;;;16.49;71.71;99095.34;5014751;28;20054;-56
2022/09/08 01:14:50;;;;;;;5.38;1.35;;;;;;;16.44;71.39;99096.38;5037771;28;20501;-54
2022/09/08 01:17:23;;;;;;;2.83;1.40;;;;;;;16.45;71.77;99098.06;5036809;28;20137;-53
2022/09/08 01:19:51;;;;;;;4.95;1.50;;;;;;;16.43;71.82;99097.31;5039651;28;20045;-52
2022/09/08 01:27:40;;;;;;;3.90;0.85;;;;;;;16.61;72.15;99092.19;5026783;28;20397;-53
2022/09/08 01:30:10;;;;;;;3.85;0.77;;;;;;;16.59;71.62;99091.41;5000190;28;20088;-54
2022/09/08 01:32:41;;;;;;;2.63;0.90;;;;;;;16.60;71.92;99089.63;5001365;28;20068;-52
2022/09/08 01:35:08;;;;;;;4.70;0.82;;;;;;;16.60;71.63;99085.25;5001653;28;20565;-52
2022/09/08 01:37:35;;;;;;;2.42;0.77;;;;;;;16.60;71.10;99093.09;5002829;28;20137;-53
2022/09/08 01:40:03;;;;;;;4.47;0.70;;;;;;;16.60;71.54;99087.88;4999344;28;20129;-51
2022/09/08 01:42:30;;;;;;;5.57;0.90;;;;;;;16.60;71.49;99087.03;4997375;28;20054;-52
2022/09/08 01:44:57;;;;;;;5.25;0.90;;;;;;;16.57;71.74;99082.78;5002783;28;20048;-50
2022/09/08 01:47:23;;;;;;;4.63;0.85;;;;;;;16.56;71.60;99081.09;5001618;28;20132;-54
2022/09/08 01:49:50;;;;;;;5.13;0.85;;;;;;;16.54;71.38;99082.91;5013050;28;20161;-53
2022/09/08 01:52:17;;;;;;;2.13;0.40;;;;;;;16.53;71.39;99078.59;5019329;28;20554;-54
2022/09/08 01:54:43;;;;;;;6.10;1.02;;;;;;;16.50;71.51;99073.50;5022442;28;20051;-55
2022/09/08 01:57:10;;;;;;;4.18;0.60;;;;;;;16.48;71.15;99077.97;5019342;28;20100;-53
2022/09/08 01:59:36;;;;;;;8.75;0.70;;;;;;;16.44;71.36;99079.84;5018664;28;20050;-54
2022/09/08 02:02:03;;;;;;;4.63;0.70;;;;;;;16.42;71.67;99073.84;5018925;28;20132;-52
2022/09/08 02:04:32;;;;;;;3.97;0.55;;;;;;;16.38;72.12;99069.66;5020195;28;20052;-52
2022/09/08 02:06:58;;;;;;;7.32;0.60;;;;;;;16.38;71.27;99075.72;5021497;28;20050;-53
2022/09/08 02:09:25;;;;;;;4.57;0.50;;;;;;;16.34;71.69;99068.94;5017597;28;20168;-53
2022/09/08 02:11:51;;;;;;;1.17;0.65;;;;;;;16.31;72.26;99069.06;5016195;28;20121;-54
2022/09/08 02:14:18;;;;;;;2.60;1.00;;;;;;;16.27;72.17;99065.72;5021718;28;20048;-52
2022/09/08 02:16:45;;;;;;;6.68;0.95;;;;;;;16.25;72.47;99066.72;5022245;28;20141;-54
2022/09/08 02:19:12;;;;;;;6.10;0.85;;;;;;;16.24;72.57;99078.09;5017230;28;20518;-55
2022/09/08 02:21:39;;;;;;;6.85;2.05;;;;;;;16.23;72.38;99073.75;5020883;28;20556;-52
2022/09/08 02:24:06;;;;;;;3.28;0.82;;;;;;;16.22;72.27;99074.69;5019281;28;20132;-50
2022/09/08 02:26:32;;;;;;;4.95;0.60;;;;;;;16.17;72.78;99080.09;5021593;28;20128;-54
2022/09/08 02:28:59;;;;;;;5.88;0.63;;;;;;;16.16;72.52;99081.00;5015246;28;20057;-55
2022/09/08 02:31:27;;;;;;;4.80;0.68;;;;;;;16.14;72.59;99083.69;5019331;28;20116;-54
2022/09/08 02:33:55;;;;;;;4.47;0.90;;;;;;;16.13;72.76;99079.38;5020252;28;20046;-49
2022/09/08 02:36:21;;;;;;;7.30;1.67;;;;;;;16.14;72.73;99073.22;5023330;28;20373;-53
2022/09/08 02:38:50;;;;;;;5.82;0.77;;;;;;;16.16;72.88;99075.78;5005406;28;20141;-53
2022/09/08 02:41:17;;;;;;;4.57;1.25;;;;;;;16.16;73.22;99073.16;5006813;28;20478;-48
2022/09/08 02:43:43;;;;;;;6.80;0.82;;;;;;;16.16;72.71;99076.63;5002699;28;20499;-48
2022/09/08 02:46:10;;;;;;;2.55;0.85;;;;;;;16.15;73.04;99077.53;5004256;28;20478;-48
2022/09/08 02:48:38;;;;;;;4.15;1.50;;;;;;;16.12;72.75;99077.69;5005133;28;20548;-55
2022/09/08 02:51:09;;;;;;;4.38;0.93;;;;;;;16.09;72.94;99072.59;5021839;28;20054;-49
2022/09/08 02:53:37;;;;;;;3.50;0.63;;;;;;;16.07;72.41;99071.78;5004852;28;20133;-54
2022/09/08 02:56:04;;;;;;;5.47;1.10;;;;;;;16.05;72.89;99068.41;5035669;28;20097;-51
2022/09/08 02:58:32;;;;;;;1.60;0.68;;;;;;;16.05;73.04;99068.41;5006351;28;20076;-54
2022/09/08 03:00:59;;;;;;;3.03;0.82;;;;;;;16.05;72.16;99068.41;5007726;28;20041;-54
2022/09/08 03:03:26;;;;;;;6.40;0.40;;;;;;;16.07;72.66;99066.56;5007802;28;20477;-54
2022/09/08 03:05:53;;;;;;;4.35;1.10;;;;;;;16.08;72.37;99067.41;5007099;28;20054;-49
2022/09/08 03:08:21;;;;;;;4.28;0.70;;;;;;;16.09;72.63;99067.34;5004219;28;20149;-49
2022/09/08 03:10:48;;;;;;;4.53;1.20;;;;;;;16.09;72.22;99063.88;4991842;28;20137;-53
2022/09/08 03:13:15;;;;;;;5.85;0.73;;;;;;;16.10;72.67;99061.22;4991425;28;20054;-55
2022/09/08 03:15:42;;;;;;;2.15;1.00;;;;;;;16.10;72.82;99061.22;5004475;28;20049;-54
2022/09/08 03:18:10;;;;;;;3.55;0.70;;;;;;;16.08;72.98;99062.19;5005644;28;20512;-51
2022/09/08 03:20:38;;;;;;;4.22;0.60;;;;;;;16.06;72.04;99065.72;5003256;28;20050;-52
2022/09/08 03:23:04;;;;;;;4.28;1.02;;;;;;;16.05;72.49;99065.78;4998889;28;20587;-53
2022/09/08 03:25:35;;;;;;;4.10;2.08;;;;;;;16.04;73.16;99070.16;5002817;28;20899;-50
2022/09/08 03:28:04;;;;;;;2.92;0.90;;;;;;;16.01;72.91;99061.59;5003829;28;20060;-52
2022/09/08 03:30:30;;;;;;;3.08;0.60;;;;;;;15.99;72.69;99056.44;5004958;28;20060;-55
2022/09/08 03:32:57;;;;;;;2.40;0.93;;;;;;;15.99;72.25;99063.41;4999037;28;20061;-53
2022/09/08 03:35:24;;;;;;;2.38;0.80;;;;;;;15.97;73.17;99057.41;5004087;28;20157;-51
2022/09/08 03:37:50;;;;;;;4.63;0.80;;;;;;;15.98;72.57;99056.50;5004920;28;20486;-53
2022/09/08 03:40:18;;;;;;;5.30;0.98;;;;;;;15.98;72.40;99056.50;4999931;28;20486;-51
2022/09/08 03:42:44;;;;;;;4.05;0.80;;;;;;;15.96;72.63;99053.09;5003665;28;20129;-53
2022/09/08 03:45:14;;;;;;;2.95;0.82;;;;;;;15.94;72.64;99056.59;5005739;28;20184;-53
2022/09/08 03:47:42;;;;;;;3.45;0.95;;;;;;;15.93;73.07;99049.69;5004413;28;20137;-55
2022/09/08 03:50:12;;;;;;;3.40;1.20;;;;;;;15.86;73.41;99063.03;5000221;28;20049;-54
2022/09/08 03:52:38;;;;;;;7.10;1.10;;;;;;;15.82;73.30;99059.72;5006841;28;20050;-52
2022/09/08 03:55:05;;;;;;;4.68;1.20;;;;;;;15.73;73.84;99058.31;5001142;28;20145;-54
2022/09/08 03:57:32;;;;;;;2.15;0.80;;;;;;;15.75;73.27;99055.63;5003975;28;21033;-53
2022/09/08 03:59:59;;;;;;;4.72;1.17;;;;;;;15.73;73.24;99049.63;5007819;28;20054;-53
2022/09/08 04:02:29;;;;;;;7.60;2.00;;;;;;;15.67;73.68;99051.56;5006021;28;20073;-54
2022/09/08 04:04:57;;;;;;;4.38;1.77;;;;;;;15.62;73.76;99045.69;5002887;28;20380;-53
2022/09/08 04:07:29;;;;;;;3.35;1.92;;;;;;;15.58;73.77;99049.34;5003765;28;20456;-54
2022/09/08 04:09:56;;;;;;;3.90;1.95;;;;;;;15.55;74.29;99054.69;4999789;28;20085;-53
2022/09/08 04:12:24;;;;;;;3.88;1.90;;;;;;;15.56;74.00;99048.53;5001657;28;20081;-53
2022/09/08 04:14:51;;;;;;;5.53;2.00;;;;;;;15.57;73.71;99052.84;5004237;28;20042;-54
2022/09/08 04:17:20;;;;;;;6.75;2.28;;;;;;;15.53;74.44;99046.03;5003937;28;20135;-51
2022/09/08 04:19:49;;;;;;;4.68;2.15;;;;;;;15.54;74.55;99043.38;5018070;28;20081;-52
2022/09/08 04:22:22;;;;;;;7.10;1.90;;;;;;;15.55;74.15;99046.84;5004702;28;20054;-55
2022/09/08 04:24:50;;;;;;;5.80;2.40;;;;;;;15.58;74.08;99048.47;5001179;28;20049;-54
2022/09/08 04:27:22;;;;;;;7.13;2.95;;;;;;;15.56;74.13;99045.94;4999521;28;20522;-54
2022/09/08 04:29:50;;;;;;;5.68;2.25;;;;;;;15.54;74.00;99047.75;5002060;28;20138;-53
2022/09/08 04:32:18;;;;;;;4.75;2.22;;;;;;;15.47;75.11;99046.31;5002844;28;20066;-53
2022/09/08 04:34:49;;;;;;;5.20;3.08;;;;;;;15.50;74.35;99040.97;5002930;28;20056;-55
2022/09/08 04:37:17;;;;;;;6.20;1.65;;;;;;;15.41;74.87;99040.41;5003272;28;20046;-53
2022/09/08 04:39:43;;;;;;;6.47;3.40;;;;;;;15.40;75.74;99036.09;5004403;28;20445;-53
2022/09/08 04:42:10;;;;;;;5.50;1.98;;;;;;;15.38;75.69;99032.72;5005816;28;20048;-54
2022/09/08 04:44:37;;;;;;;7.22;2.42;;;;;;;15.36;75.85;99034.50;5000851;28;20082;-54
2022/09/08 04:47:03;;;;;;;7.35;2.47;;;;;;;15.29;76.25;99028.69;5002835;28;20118;-55
2022/09/08 04:49:30;;;;;;;6.75;2.30;;;;;;;15.26;76.25;99028.81;5002802;28;20054;-56
2022/09/08 04:51:57;;;;;;;7.30;3.08;;;;;;;15.26;76.05;99022.72;5005543;28;20525;-52
2022/09/08 04:54:23;;;;;;;5.00;2.40;;;;;;;15.27;75.71;99025.28;5005721;28;20050;-55
2022/09/08 04:56:50;;;;;;;6.38;2.53;;;;;;;15.25;76.37;99031.47;5002822;28;20188;-56
2022/09/08 04:59:17;;;;;;;5.68;2.22;;;;;;;15.24;76.87;99030.63;4998278;28;20140;-55
2022/09/08 05:01:43;;;;;;;6.70;3.00;;;;;;;15.24;76.81;99030.63;5003786;28;20452;-54
2022/09/08 05:04:10;;;;;;;9.38;3.05;;;;;;;15.25;76.52;99016.69;5005900;28;20049;-52
2022/09/08 05:06:37;;;;;;;7.55;2.55;;;;;;;15.25;76.48;99018.44;5001551;28;20134;-51
2022/09/08 05:09:05;;;;;;;8.40;2.75;;;;;;;15.26;76.76;99023.59;4995505;28;20077;-55
2022/09/08 05:11:33;;;;;;;11.35;3.20;;;;;;;15.23;77.08;99022.88;4999772;28;20129;-55
2022/09/08 05:14:01;;;;;;;12.25;3.40;;;;;;;15.20;77.35;99025.59;5003006;28;20120;-56
2022/09/08 05:16:28;;;;;;;10.93;3.38;;;;;;;15.21;76.95;99024.69;4999421;28;20445;-56
2022/09/08 05:18:58;;;;;;;10.18;3.28;;;;;;;15.14;77.33;99024.91;5030455;28;20117;-55
2022/09/08 05:21:25;;;;;;;;;;;;;;;15.04;78.55;99020.97;5000976;28;20086;-55
2022/09/08 05:23:54;;;;;;;9.43;3.40;;;;;;;15.19;77.59;99024.72;5000965;28;20079;-51
2022/09/08 05:26:22;;;;;;;15.18;3.75;;;;;;;15.16;77.75;99017.88;4998903;28;20085;-53
2022/09/08 05:28:49;;;;;;;14.90;3.97;;;;;;;15.22;77.46;99022.00;4998054;28;20054;-53
2022/09/08 05:31:19;;;;;;;9.80;4.03;;;;;;;15.23;77.68;99021.09;4998519;28;20140;-54
2022/09/08 05:33:46;;;;;;;13.55;4.82;;;;;;;15.22;78.00;99016.78;5000645;28;20058;-54
2022/09/08 05:36:17;;;;;;;13.27;3.72;;;;;;;15.25;77.21;99021.03;5003089;28;20136;-48
2022/09/08 05:38:44;;;;;;;13.05;3.80;;;;;;;15.25;77.84;99021.03;5003801;28;20073;-51
2022/09/08 05:41:12;;;;;;;14.27;5.13;;;;;;;15.27;77.01;99029.66;4999757;28;20473;-52
2022/09/08 05:43:39;;;;;;;14.57;4.80;;;;;;;15.29;77.53;99022.63;5002375;28;20042;-51
2022/09/08 05:46:07;;;;;;;13.15;5.07;;;;;;;15.29;77.82;99020.00;4999225;28;20138;-59
2022/09/08 05:48:34;;;;;;;13.65;3.95;;;;;;;15.25;77.89;99015.81;5000545;28;20148;-49
2022/09/08 05:51:02;;;;;;;17.65;4.75;;;;;;;15.30;77.58;99013.88;5007144;28;20042;-52
2022/09/08 05:53:29;;;;;;;15.10;3.85;;;;;;;15.33;77.32;99011.16;5000670;28;20046;-55
2022/09/08 05:55:58;;;;;;;17.70;4.68;;;;;;;15.35;77.53;99017.16;5004227;28;20046;-56
2022/09/08 05:58:26;;;;;;;13.93;4.72;;;;;;;15.37;77.63;99015.34;5002475;28;20054;-49
2022/09/08 06:03:32;;;;;;;15.27;5.43;;;;;;;15.44;77.16;99012.50;5073823;27;20409;-54
2022/09/08 06:06:09;;;;;;;14.00;4.35;;;;;;;15.45;77.42;99011.56;5021656;28;20044;-55
2022/09/08 06:08:38;;;;;;;12.10;4.20;;;;;;;15.48;77.18;99014.06;5048967;28;20052;-52
2022/09/08 06:11:05;;;;;;;16.75;4.95;;;;;;;15.53;76.91;99009.50;5020103;28;20049;-53
2022/09/08 06:13:33;;;;;;;12.52;4.78;;;;;;;15.54;76.68;99016.44;5023924;28;20140;-51
2022/09/08 06:16:02;;;;;;;11.73;4.65;;;;;;;15.53;77.21;99015.59;5036049;28;20053;-50
2022/09/08 06:18:32;;;;;;;17.35;4.10;;;;;;;15.58;76.88;99018.03;5034264;28;20053;-56
2022/09/08 06:21:09;;;;;;;13.75;5.10;;;;;;;15.58;76.65;99020.63;5029990;28;20135;-53
2022/09/08 06:23:36;;;;;;;9.90;3.85;;;;;;;15.61;76.83;99017.91;5033956;28;20049;-53
2022/09/08 06:26:39;;;;;;;17.27;4.53;;;;;;;15.62;76.75;99014.38;5033320;28;20044;-55
2022/09/08 06:29:13;;;;;;;10.90;3.90;;;;;;;15.70;76.56;99013.22;5036027;28;20077;-54
2022/09/08 06:31:47;;;;;;;13.73;4.07;;;;;;;15.72;76.86;99014.84;5050475;28;20136;-52
2022/09/08 06:34:20;;;;;;;13.73;4.15;;;;;;;15.76;76.54;99020.78;5035951;28;20053;-56
2022/09/08 06:36:51;;;;;;;12.52;4.03;;;;;;;15.73;76.53;99011.31;5036601;28;20041;-53
2022/09/08 06:39:25;;;;;;;15.43;5.70;;;;;;;15.80;76.52;99019.75;5029779;28;20132;-52
2022/09/08 06:42:01;;;;;;;15.73;4.15;;;;;;;15.82;76.24;99015.31;5049038;28;20050;-55
2022/09/08 06:44:33;;;;;;;10.80;4.13;;;;;;;15.87;76.52;99015.97;5021242;28;20045;-54
2022/09/08 06:47:00;;;;;;;10.68;3.63;;;;;;;15.94;76.30;99013.94;5017360;28;20481;-53
2022/09/08 06:49:28;;;;;;;9.35;3.30;;;;;;;16.00;76.23;99003.28;5024112;28;20132;-54
2022/09/08 06:52:20;;;;;;;11.27;3.75;;;;;;;16.04;76.57;99009.22;5020885;28;20144;-55
2022/09/08 07:00:10;;;;;;;9.68;2.38;;;;;;;16.16;75.57;99006.13;5057353;28;20403;-56
2022/09/08 07:03:03;;;;;;;10.27;3.10;;;;;;;16.13;75.27;99008.84;5034292;28;20508;-51
2022/09/08 07:58:06;;;;;;;7.70;2.67;;;;;;;18.02;70.26;98987.13;5037034;28;20433;-57
2022/09/08 08:00:48;;;;;;;7.38;1.50;;;;;;;17.93;70.37;98993.69;5003041;28;20878;-57
2022/09/08 08:03:33;;;;;;;11.38;3.17;;;;;;;17.86;70.98;98981.81;4995646;28;20053;-56
2022/09/08 08:06:08;;;;;;;11.38;3.60;;;;;;;17.84;70.80;98981.06;4992814;28;20510;-53
2022/09/08 08:25:25;;;;;;;12.18;2.40;;;;;;;17.64;71.53;98975.06;5043584;28;20394;-57
2022/09/08 08:30:37;;;;;;;15.45;2.15;;;;;;;17.89;71.19;98972.94;5114968;27;20420;-57
2022/09/08 08:33:25;;;;;;;8.20;2.30;;;;;;;17.96;71.80;98977.81;5080272;28;20454;-59
2022/09/08 08:35:56;;;;;;;5.32;2.08;;;;;;;18.11;70.66;98975.38;5100308;28;20127;-56
2022/09/08 08:38:38;;;;;;;11.25;2.55;;;;;;;18.23;70.84;98979.13;5095873;28;20495;-55
2022/09/08 08:41:17;;;;;;;10.55;2.80;;;;;;;18.55;71.44;98974.00;5098300;27;20057;-56
2022/09/08 08:47:07;;;;;;;9.93;3.53;;;;;;;18.83;69.48;98980.38;5052292;27;20397;-56
2022/09/08 09:00:47;;;;;;;9.63;2.55;;;;;;;19.26;69.24;98974.53;5092243;27;20406;-54
2022/09/08 09:11:48;;;;;;;5.25;1.88;;;;;;;20.44;66.94;98991.47;5037348;28;20409;-56
2022/09/08 09:20:43;;;;;;;7.05;2.60;;;;;;;20.07;66.20;98979.63;5030697;28;20801;-58
2022/09/08 09:23:30;;;;;;;4.82;1.20;;;;;;;20.03;65.66;98978.94;4995797;28;20488;-58
2022/09/08 09:26:09;;;;;;;4.00;1.17;;;;;;;19.86;65.38;98981.72;4999788;28;20508;-59
2022/09/08 10:01:42;;;;;;;2.17;0.60;;;;;;;20.46;62.31;98974.66;5040425;27;20938;-58
2022/09/08 10:04:40;;;;;;;5.10;1.15;;;;;;;20.47;63.05;98976.34;5021183;28;20129;-56
2022/09/08 10:10:40;;;;;;;4.15;1.67;;;;;;;20.76;61.17;98976.34;5076308;27;20407;-57
2022/09/08 10:16:11;;;;;;;2.75;0.70;;;;;;;20.52;61.33;98970.81;5040339;27;20388;-57
2022/09/08 10:19:17;;;;;;;3.20;0.80;;;;;;;20.24;61.42;98973.38;4995467;28;20133;-55
2022/09/08 10:33:21;;;;;;;3.72;1.05;;;;;;;21.30;61.78;98958.94;5036145;27;20402;-55
2022/09/08 10:35:51;;;;;;;;;;;;;;;21.16;61.23;98945.81;5026353;28;20144;-57
2022/09/08 10:38:57;;;;;;;2.53;1.30;;;;;;;20.99;59.69;98950.41;5020472;28;20070;-55
2022/09/08 10:44:39;;;;;;;3.42;1.17;;;;;;;20.78;60.97;98932.34;5066083;27;20400;-53
2022/09/08 10:56:11;;;;;;;4.85;1.50;;;;;;;21.81;58.81;98917.88;5033396;27;20421;-56
2022/09/08 11:17:46;;;;;;;5.30;2.83;;;;;;;22.84;56.23;98913.44;5058467;28;20875;-54
2022/09/08 11:20:27;;;;;;;3.08;1.95;;;;;;;22.87;55.97;98911.53;5024772;28;20046;-55
2022/09/08 11:28:35;;;;;;;4.68;1.02;;;;;;;23.00;56.24;98895.66;5059863;28;20402;-55
2022/09/08 11:31:27;;;;;;;5.70;0.75;;;;;;;23.28;55.69;98906.81;5052456;28;20064;-56
2022/09/08 11:50:12;;;;;;;3.80;0.68;;;;;;;22.46;54.72;98911.75;5030805;28;20411;-56
2022/09/08 11:56:23;;;;;;;5.63;2.20;;;;;;;22.16;54.43;98907.66;5026587;28;20421;-53
2022/09/08 12:36:49;;;;;;;6.05;1.10;;;;;;;21.47;60.25;98900.84;5045516;28;20390;-53
2022/09/08 12:42:33;;;;;;;4.45;0.80;;;;;;;21.18;60.03;98904.47;5061313;28;20402;-52
2022/09/08 12:58:04;;;;;;;3.53;1.05;;;;;;;20.35;66.13;98892.97;5042645;27;20409;-59
2022/09/08 13:00:38;;;;;;;9.10;1.48;;;;;;;20.36;66.14;98902.56;5016019;28;20184;-59
2022/09/08 13:03:32;;;;;;;8.27;1.35;;;;;;;20.29;66.07;98897.69;5008777;28;20145;-60
2022/09/08 13:48:15;;;;;;;5.95;1.00;;;;;;;21.59;65.47;98871.03;5041601;27;20409;-59
2022/09/08 13:56:50;;;;;;;7.35;1.40;;;;;;;21.34;65.49;98875.31;5007599;27;20413;-59
2022/09/08 14:12:24;;;;;;;5.78;1.48;;;;;;;21.38;63.44;98847.00;5120386;27;20398;-60
2022/09/08 14:15:18;;;;;;;5.55;1.02;;;;;;;21.20;61.90;98852.53;5066328;28;20076;-59
2022/09/08 14:18:13;;;;;;;5.97;0.90;;;;;;;21.17;63.58;98852.72;5088145;28;20048;-59
2022/09/08 14:26:32;;;;;;;4.13;0.70;;;;;;;21.05;62.52;98843.88;5025076;27;20762;-59
2022/09/08 14:58:22;;;;;;;4.20;1.15;;;;;;;20.87;62.15;98824.84;5035213;27;20445;-57
2022/09/08 15:00:54;;;;;;;4.97;0.68;;;;;;;20.96;62.25;98824.25;5006913;28;20045;-58
2022/09/08 15:03:41;;;;;;;4.97;0.98;;;;;;;20.96;61.91;98815.50;5011380;28;20080;-57
2022/09/08 15:06:10;;;;;;;3.65;1.13;;;;;;;21.05;62.38;98810.47;5006752;28;20049;-55
2022/09/08 15:08:38;;;;;;;2.38;0.80;;;;;;;21.14;62.07;98810.84;4999586;28;20046;-58
2022/09/08 15:11:12;;;;;;;5.78;1.63;;;;;;;21.18;62.06;98807.06;5013605;28;20434;-55
2022/09/08 15:14:00;;;;;;;4.00;1.45;;;;;;;21.21;61.81;98801.56;5004499;28;20442;-57
2022/09/08 15:43:20;;;;;;;6.32;1.77;;;;;;;20.86;61.13;98807.34;5081943;27;20410;-58
2022/09/08 15:46:07;;;;;;;5.32;1.35;;;;;;;20.76;61.35;98802.69;5044808;28;20116;-54
2022/09/08 16:05:03;;;;;;;3.83;1.52;;;;;;;20.46;61.78;98801.09;5026770;28;20418;-57
2022/09/08 16:10:22;;;;;;;7.47;2.10;;;;;;;20.73;61.22;98802.88;5069639;27;20423;-58
2022/09/08 16:24:07;;;;;;;2.80;0.55;;;;;;;19.93;62.71;98788.59;5116610;27;20389;-57
2022/09/08 16:32:08;;;;;;;4.75;0.57;;;;;;;19.74;63.15;98778.38;5009828;28;20414;-56
2022/09/08 16:34:46;;;;;;;2.83;0.93;;;;;;;19.74;63.23;98773.13;4982844;28;20141;-56
2022/09/08 16:37:24;;;;;;;6.00;1.15;;;;;;;19.65;63.21;98775.38;4983964;28;20364;-56
2022/09/08 16:50:58;;;;;;;5.78;1.15;;;;;;;19.81;63.11;98768.31;5000585;27;20914;-56
2022/09/08 16:56:34;;;;;;;4.10;0.50;;;;;;;19.51;63.66;98768.34;5010887;28;20426;-55
2022/09/08 16:59:21;;;;;;;6.05;0.65;;;;;;;19.50;63.75;98773.69;5005273;28;20044;-56
2022/09/08 17:02:05;;;;;;;4.65;1.10;;;;;;;19.40;63.83;98770.75;4997058;28;20141;-56
2022/09/08 17:04:53;;;;;;;5.28;0.73;;;;;;;19.37;64.14;98776.19;5001162;28;20045;-55
2022/09/08 17:07:30;;;;;;;4.43;0.60;;;;;;;19.36;63.55;98787.63;5002247;28;20084;-55
2022/09/08 17:10:22;;;;;;;3.38;1.27;;;;;;;19.31;63.60;98787.03;5001171;28;20470;-56
2022/09/08 17:13:16;;;;;;;5.97;0.88;;;;;;;19.24;63.70;98792.69;5002497;28;20964;-55
2022/09/08 17:16:22;;;;;;;4.13;0.82;;;;;;;19.11;63.66;98783.81;5001252;28;20137;-53
2022/09/08 17:24:49;;;;;;;3.92;0.77;;;;;;;19.01;63.50;98786.97;5048297;28;20756;-57
2022/09/08 17:30:24;;;;;;;2.58;0.35;;;;;;;18.90;63.38;98794.59;5086838;27;20418;-56
2022/09/08 17:38:32;;;;;;;1.80;0.63;;;;;;;18.72;63.62;98797.38;5034169;27;20411;-57
2022/09/08 17:46:55;;;;;;;1.55;0.40;;;;;;;18.61;63.42;98805.00;5024952;28;20423;-56
2022/09/08 17:49:35;;;;;;;1.42;0.40;;;;;;;18.50;63.61;98813.44;5003495;28;20133;-53
2022/09/08 17:52:18;;;;;;;4.63;0.50;;;;;;;18.40;64.13;98813.09;5000080;28;20061;-55
2022/09/08 17:55:04;;;;;;;1.27;0.75;;;;;;;18.29;63.84;98810.22;4994176;28;20074;-55
2022/09/08 17:57:39;;;;;;;3.08;0.30;;;;;;;18.26;64.24;98807.75;4999849;28;20141;-56
2022/09/08 18:00:21;;;;;;;3.05;0.30;;;;;;;18.09;64.46;98804.28;4994045;28;20038;-55
2022/09/08 18:05:29;;;;;;;1.35;0.30;;;;;;;17.98;64.59;98797.84;5007133;28;20407;-55
2022/09/08 18:08:33;;;;;;;0.65;0.30;;;;;;;17.79;64.80;98803.22;4993969;28;20605;-54
2022/09/08 18:13:43;;;;;;;3.15;1.27;;;;;;;17.67;64.89;98809.09;5043106;27;20406;-56
2022/09/08 18:18:50;;;;;;;2.50;0.60;;;;;;;17.49;64.73;98814.34;5082581;27;20404;-53
2022/09/08 18:29:57;;;;;;;1.15;0.60;;;;;;;17.24;65.19;98812.97;5059952;27;20391;-53
2022/09/08 18:35:26;;;;;;;1.42;1.33;;;;;;;17.12;65.92;98822.28;5016407;27;20415;-55
2022/09/08 18:37:54;;;;;;;1.52;1.25;;;;;;;17.09;66.00;98819.81;5006824;28;20077;-55
2022/09/08 18:40:27;;;;;;;2.17;1.15;;;;;;;17.07;66.45;98824.28;5008671;28;20132;-54
2022/09/08 18:45:53;;;;;;;2.67;0.65;;;;;;;16.93;66.34;98824.94;5039540;28;20401;-55
2022/09/08 18:51:31;;;;;;;3.30;0.75;;;;;;;16.87;66.39;98836.53;5050171;27;20404;-56
2022/09/08 19:02:18;;;;;;;1.73;1.08;;;;;;;17.22;66.62;98830.50;4984662;28;20424;-55
2022/09/08 19:17:58;;;;;;;0.68;0.55;;;;;;;16.62;67.93;98842.94;5055130;28;20389;-55
2022/09/08 19:20:27;;;;;;;4.15;0.40;;;;;;;16.58;67.90;98841.38;4990208;28;20077;-56
2022/09/08 19:26:29;;;;;;;2.05;0.75;;;;;;;16.39;68.33;98844.88;5021667;28;20898;-56
2022/09/08 20:03:08;;;;;;;3.28;1.25;;;;;;;16.21;68.26;98848.31;5060133;28;20385;-53
2022/09/08 20:05:52;;;;;;;6.15;0.57;;;;;;;16.13;69.15;98841.69;5020843;28;20065;-55
2022/09/08 20:14:11;;;;;;;3.08;0.98;;;;;;;16.51;67.68;98846.06;5016654;28;20419;-49
2022/09/08 20:16:45;;;;;;;4.13;1.25;;;;;;;16.29;68.67;98851.44;4982387;28;20106;-52
2022/09/08 20:21:54;;;;;;;2.95;0.50;;;;;;;16.17;68.89;98852.81;5049866;27;20860;-51
2022/09/08 20:24:34;;;;;;;5.35;1.00;;;;;;;16.13;69.07;98848.66;4995971;28;20050;-49
2022/09/08 20:27:14;;;;;;;5.35;0.88;;;;;;;16.13;68.99;98851.28;4993620;28;20129;-51
2022/09/08 20:40:28;;;;;;;3.95;1.00;;;;;;;16.01;68.84;98857.91;5045583;27;20412;-51
2022/09/08 20:43:18;;;;;;;7.00;1.25;;;;;;;15.90;69.06;98851.34;5034092;28;20491;-52
2022/09/08 20:48:53;;;;;;;3.38;1.00;;;;;;;15.86;69.00;98852.41;5044135;27;20409;-53
2022/09/08 20:51:27;;;;;;;7.93;1.23;;;;;;;15.91;69.01;98853.03;5013867;28;20141;-54
2022/09/08 20:59:52;;;;;;;4.68;1.80;;;;;;;15.79;68.97;98843.16;5054528;28;20413;-51
2022/09/08 21:02:25;;;;;;;4.63;1.60;;;;;;;15.79;69.01;98837.91;5008899;27;20128;-54
2022/09/08 21:05:15;;;;;;;3.20;1.85;;;;;;;15.70;69.63;98843.56;5004033;28;20129;-55
2022/09/08 21:07:44;;;;;;;3.25;2.03;;;;;;;15.75;69.53;98836.38;5007443;28;20096;-55
2022/09/08 21:18:20;;;;;;;7.18;2.67;;;;;;;15.66;69.46;98838.47;5086191;27;20401;-51
2022/09/08 21:20:59;;;;;;;5.07;1.20;;;;;;;15.65;69.42;98842.00;5044682;28;20470;-50
2022/09/08 21:23:28;;;;;;;9.88;3.00;;;;;;;15.64;69.81;98839.44;5040586;28;20144;-54
2022/09/08 21:26:12;;;;;;;6.63;2.83;;;;;;;15.59;69.93;98836.16;5040756;28;20076;-55
2022/09/08 21:28:53;;;;;;;7.50;2.90;;;;;;;15.56;69.89;98837.16;5040488;28;20045;-53
2022/09/08 21:31:47;;;;;;;4.78;3.28;;;;;;;15.47;70.16;98832.34;5038329;28;20057;-50
2022/09/08 21:34:22;;;;;;;5.75;3.15;;;;;;;15.50;69.78;98837.44;5039047;28;20118;-51
2022/09/08 21:39:38;;;;;;;5.63;1.70;;;;;;;15.46;69.73;98841.06;5038803;28;20431;-52
2022/09/08 21:42:12;;;;;;;6.68;1.90;;;;;;;15.43;70.43;98831.59;4988493;28;20047;-54
2022/09/08 21:44:42;;;;;;;4.78;1.50;;;;;;;15.42;70.04;98835.13;4979472;28;20051;-58
2022/09/08 21:47:21;;;;;;;4.35;1.80;;;;;;;15.37;70.56;98832.72;4986892;28;20081;-57
2022/09/08 21:50:00;;;;;;;6.25;1.45;;;;;;;15.36;70.15;98828.41;4988371;28;20486;-57
2022/09/08 21:52:30;;;;;;;9.77;1.40;;;;;;;15.37;70.45;98832.72;4978067;28;20054;-58
2022/09/08 21:55:11;;;;;;;4.72;1.83;;;;;;;15.37;70.39;98832.72;4977216;28;20057;-57
2022/09/08 21:57:42;;;;;;;7.15;1.55;;;;;;;15.35;70.08;98829.34;4984022;28;20064;-58
2022/09/08 22:05:47;;;;;;;7.90;2.22;;;;;;;15.36;70.81;98831.03;5007543;28;20398;-55